»·PEaware :: AAL1017 KSBA-KSNA

AAL1017 :: KSBA-KSNA

FLIGHT INFORMATION

Flight Status: Arrived
Operator:
American Airlines
More flights by this operator :: More flights under this callsign
Pilot: Anonymous 13704 (13704)
Aircraft: AIRBUS A320
(A320)
More flights by this aircraft type
Origin: KSBA Santa Barbara Mun
United States
Destination: KSNA John Wayne-Orange Co
United States
More flights between these airports :: More routes between these airports
Route: +KWANG VTU V208 SXC SLI
File this flight plan on PilotEdge
Remarks: Slant / L
Altitude:
(Current/Filed)
250ft
Speed:
(Current/Filed)
270kts
Departed: 31-Jan-19 12:20 PM
Arrived: 31-Jan-19 12:58 PM
Distance/Time
Traveled:
108nm/0:38
Distance/Time
To Go:
Arrived

Flight Plot

Page will automatically refresh every two minutes.


Map Options




Map Legend


Flown Route
Filed Route
Departure Airport
Arrival Airport
Navaid (VOR, NDB)
Fix

Horizontal Profiles

Position Reports

Time Latitude Longitude Heading Altitude Ground
Speed
31-Jan-19 11:50 34.424040 -119.836921 78 19ft 0kts
31-Jan-19 11:51 34.424040 -119.836921 78 19ft 0kts
31-Jan-19 11:53 34.424040 -119.836921 78 19ft 0kts
31-Jan-19 11:54 34.424040 -119.836921 78 19ft 0kts
31-Jan-19 11:54 34.424040 -119.836921 78 19ft 0kts
31-Jan-19 11:55 34.424040 -119.836921 78 19ft 0kts
31-Jan-19 11:56 34.424040 -119.836921 78 19ft 0kts
31-Jan-19 11:57 34.424040 -119.836921 78 19ft 0kts
31-Jan-19 11:58 34.424040 -119.836921 78 19ft 0kts
31-Jan-19 11:59 34.424040 -119.836921 78 19ft 0kts
31-Jan-19 12:00 34.424040 -119.836921 78 19ft 0kts
31-Jan-19 12:01 34.424040 -119.836921 78 19ft 0kts
31-Jan-19 12:02 34.424040 -119.836921 78 19ft 0kts
31-Jan-19 12:03 34.424040 -119.836921 78 19ft 0kts
31-Jan-19 12:04 34.424040 -119.836921 78 19ft 0kts
31-Jan-19 12:05 34.424040 -119.836921 78 19ft 0kts
31-Jan-19 12:06 34.424040 -119.836921 78 19ft 0kts
31-Jan-19 12:07 34.424040 -119.836921 78 19ft 0kts
31-Jan-19 12:08 34.424040 -119.836921 78 19ft 0kts
31-Jan-19 12:09 34.424040 -119.836921 78 19ft 0kts
31-Jan-19 12:10 34.424040 -119.836921 78 19ft 0kts
31-Jan-19 12:11 34.424040 -119.836921 78 19ft 0kts
31-Jan-19 12:12 34.424033 -119.836960 78 19ft 1kts
31-Jan-19 12:13 34.423678 -119.837400 4 19ft 2kts
31-Jan-19 12:14 34.423492 -119.837375 345 19ft 0kts
31-Jan-19 12:15 34.423492 -119.837375 345 19ft 0kts
31-Jan-19 12:16 34.424337 -119.837626 346 19ft 13kts
31-Jan-19 12:17 34.426737 -119.836655 88 19ft 12kts
31-Jan-19 12:18 34.426850 -119.835105 30 19ft 0kts
31-Jan-19 12:19 34.427611 -119.849371 269 127ft 154kts
31-Jan-19 12:20 34.424548 -119.898031 264 2729ft 182kts
31-Jan-19 12:21 34.399927 -119.959985 190 3650ft 240kts
31-Jan-19 12:22 34.337491 -119.930103 152 7260ft 251kts
31-Jan-19 12:23 34.276346 -119.888452 152 7999ft 254kts
31-Jan-19 12:24 34.214015 -119.842475 152 8004ft 272kts
31-Jan-19 12:25 34.145447 -119.793308 152 8002ft 288kts
31-Jan-19 12:26 34.076612 -119.744063 152 8002ft 288kts
31-Jan-19 12:27 34.007684 -119.695808 153 8010ft 280kts
31-Jan-19 12:28 33.942221 -119.641438 122 10154ft 313kts
31-Jan-19 12:29 33.902304 -119.548922 119 11000ft 312kts
31-Jan-19 12:30 33.861646 -119.456398 119 11004ft 313kts
31-Jan-19 12:31 33.820825 -119.363453 119 11004ft 313kts
31-Jan-19 12:32 33.780606 -119.271610 119 11004ft 313kts
31-Jan-19 12:33 33.740172 -119.179033 119 11004ft 313kts
31-Jan-19 12:34 33.698648 -119.087399 120 11004ft 312kts
31-Jan-19 12:35 33.656949 -118.995832 120 11003ft 313kts
31-Jan-19 12:36 33.621422 -118.901125 95 11061ft 316kts
31-Jan-19 12:37 33.617453 -118.795723 92 11059ft 316kts
31-Jan-19 12:38 33.613639 -118.690261 92 11059ft 316kts
31-Jan-19 12:39 33.609773 -118.584811 92 11059ft 316kts
31-Jan-19 12:40 33.605954 -118.480687 92 10218ft 311kts
31-Jan-19 12:41 33.602095 -118.378042 92 8882ft 301kts
31-Jan-19 12:42 33.599043 -118.284129 92 8046ft 279kts
31-Jan-19 12:43 33.596680 -118.193321 71 7018ft 263kts
31-Jan-19 12:44 33.638321 -118.127167 47 6004ft 244kts
31-Jan-19 12:45 33.683603 -118.067641 47 5026ft 240kts
31-Jan-19 12:46 33.729865 -118.008867 47 5011ft 243kts
31-Jan-19 12:47 33.777049 -117.952975 42 5011ft 223kts
31-Jan-19 12:48 33.812907 -117.915445 42 5016ft 194kts
31-Jan-19 12:49 33.852764 -117.871427 42 4994ft 196kts
31-Jan-19 12:50 33.891309 -117.825103 71 4998ft 197kts
31-Jan-19 12:51 33.890831 -117.759599 106 4994ft 196kts
31-Jan-19 12:52 33.846938 -117.753358 222 4025ft 185kts
31-Jan-19 12:53 33.805217 -117.786818 208 2999ft 179kts
31-Jan-19 12:54 33.763287 -117.813379 207 2139ft 152kts
31-Jan-19 12:55 33.727509 -117.836040 207 1092ft 143kts
31-Jan-19 12:56 33.692410 -117.858329 207 329ft 142kts
31-Jan-19 12:57 33.669494 -117.871985 146 65ft 17kts
31-Jan-19 12:58 33.670521 -117.869464 40 65ft 21kts
31-Jan-19 12:59 33.675831 -117.865328 38 65ft 10kts
31-Jan-19 13:00 33.675722 -117.864639 116 65ft 0kts
31-Jan-19 13:01 33.675722 -117.864639 116 65ft 0kts
31-Jan-19 13:02 33.675722 -117.864639 116 65ft 0kts
31-Jan-19 13:03 33.675722 -117.864639 116 65ft 0kts
31-Jan-19 13:04 33.675722 -117.864639 116 65ft 0kts
31-Jan-19 13:05 33.675722 -117.864639 116 65ft 0kts
31-Jan-19 13:06 33.675722 -117.864639 116 65ft 0kts
31-Jan-19 13:07 33.675722 -117.864639 116 65ft 0kts
31-Jan-19 13:08 33.675722 -117.864639 116 65ft 0kts
31-Jan-19 13:09 33.675722 -117.864639 116 65ft 0kts
31-Jan-19 13:10 33.675722 -117.864639 116 65ft 0kts
31-Jan-19 13:11 33.675722 -117.864639 116 65ft 0kts

Navigation Log

Ident Type
Flight plan parsing failed, navigation log unavailable